Time;durP1;ratioP1;P1;durP2;ratioP2;P2;SDS_P1;SDS_P2;PMS_P1;PMS_P2;Temp;Humidity;BMP_temperature;BMP_pressure;BME280_temperature;BME280_humidity;BME280_pressure;Samples;Min_cycle;Max_cycle;Signal;HPM_P1;HPM_P2
2022/08/13 00:02:22;;;;;;;;;;;;;;;18.67;47.83;98088.56;4974124;28;20364;-74
2022/08/13 00:04:56;;;;;;;;;;;;;;;18.66;47.78;98094.44;4897780;29;20370;-74
2022/08/13 00:07:25;;;;;;;;;;;;;;;18.70;47.59;98101.66;4910180;29;19935;-73
2022/08/13 00:09:53;;;;;;;;;;;;;;;18.70;47.74;98095.38;4914796;29;19930;-73
2022/08/13 00:18:07;;;;;;;;;;;;;;;18.44;48.39;98079.44;4904039;29;19927;-73
2022/08/13 00:20:38;;;;;;;;;;;;;;;18.37;48.40;98082.00;4913610;29;19943;-74
2022/08/13 00:23:07;;;;;;;;;;;;;;;18.31;48.61;98075.97;4939050;28;19926;-73
2022/08/13 00:25:49;;;;;;;;;;;;;;;18.37;48.51;98076.50;4981350;28;19922;-73
2022/08/13 00:28:20;;;;;;;;;;;;;;;18.41;48.54;98085.63;4992662;28;19922;-73
2022/08/13 00:30:48;;;;;;;;;;;;;;;18.25;48.83;98082.91;4970417;28;19970;-73
2022/08/13 00:33:21;;;;;;;;;;;;;;;18.32;48.61;98075.63;4956209;28;20368;-73
2022/08/13 00:36:00;;;;;;;;;;;;;;;18.35;48.41;98081.56;4949361;28;19922;-73
2022/08/13 00:38:32;;;;;;;;;;;;;;;18.35;48.54;98085.13;4964451;28;20390;-74
2022/08/13 00:41:04;;;;;;;;;;;;;;;18.41;48.41;98085.63;4953562;28;19922;-74
2022/08/13 00:43:34;;;;;;;;;;;;;;;18.32;48.43;98089.38;4954187;28;19922;-74
2022/08/13 00:46:03;;;;;;;;;;;;;;;18.27;48.77;98080.63;4960942;28;19922;-74
2022/08/13 00:48:43;;;;;;;;;;;;;;;18.24;48.84;98082.13;4958262;28;19922;-74
2022/08/13 00:51:16;;;;;;;;;;;;;;;18.22;48.94;98078.16;4955754;28;19978;-74
2022/08/13 00:54:07;;;;;;;;;;;;;;;18.19;48.90;98074.13;4946686;28;20021;-74
2022/08/13 00:56:37;;;;;;;;;;;;;;;18.11;49.16;98072.41;4972856;28;19953;-73
2022/08/13 00:59:10;;;;;;;;;;;;;;;18.14;49.15;98062.63;4959290;28;20386;-73
2022/08/13 01:01:39;;;;;;;;;;;;;;;18.14;49.23;98055.16;4976460;28;20391;-73
2022/08/13 01:04:07;;;;;;;;;;;;;;;18.16;49.11;98049.31;4955880;28;19977;-74
2022/08/13 01:06:40;;;;;;;;;;;;;;;17.93;49.78;98049.16;4974510;28;19957;-74
2022/08/13 01:09:08;;;;;;;;;;;;;;;17.99;49.73;98045.78;4956898;28;19922;-73
2022/08/13 01:12:21;;;;;;;;;;;;;;;17.79;50.35;98047.69;4973576;28;20383;-74
2022/08/13 01:14:54;;;;;;;;;;;;;;;18.08;49.52;98055.81;4963616;28;19922;-73
2022/08/13 01:17:22;;;;;;;;;;;;;;;17.86;49.86;98049.78;4980011;28;19922;-74
2022/08/13 01:19:52;;;;;;;;;;;;;;;17.70;50.54;98048.97;4973052;28;19929;-73
2022/08/13 01:22:25;;;;;;;;;;;;;;;17.56;51.01;98046.66;4975234;28;20345;-73
2022/08/13 01:25:01;;;;;;;;;;;;;;;17.58;51.10;98047.13;4973071;28;20440;-73
2022/08/13 01:27:33;;;;;;;;;;;;;;;17.51;51.19;98044.16;4975279;28;20391;-73
2022/08/13 01:30:03;;;;;;;;;;;;;;;17.57;50.95;98048.25;4967984;28;19944;-73
2022/08/13 01:32:31;;;;;;;;;;;;;;;17.33;51.75;98053.91;4978856;28;19969;-73
2022/08/13 01:35:20;;;;;;;;;;;;;;;17.28;51.63;98053.00;4983263;28;19925;-73
2022/08/13 01:38:13;;;;;;;;;;;;;;;17.36;51.67;98053.97;4984200;28;19960;-73
2022/08/13 01:40:43;;;;;;;;;;;;;;;17.30;52.01;98055.41;4966268;28;19928;-73
2022/08/13 01:43:11;;;;;;;;;;;;;;;17.36;51.65;98059.47;4963511;28;19922;-73
2022/08/13 01:45:49;;;;;;;;;;;;;;;17.25;51.71;98050.16;4976995;28;20341;-73
2022/08/13 01:51:08;;;;;;;;;;;;;;;17.51;51.13;98055.94;4958300;28;19922;-73
2022/08/13 01:53:47;;;;;;;;;;;;;;;17.54;51.15;98051.72;4978153;28;19976;-73
2022/08/13 01:56:21;;;;;;;;;;;;;;;17.45;51.03;98045.59;4984652;28;19926;-73
2022/08/13 01:58:50;;;;;;;;;;;;;;;17.33;51.55;98051.97;4963457;28;19930;-73
2022/08/13 02:01:36;;;;;;;;;;;;;;;17.32;51.85;98052.31;4980109;28;19926;-73
2022/08/13 02:04:10;;;;;;;;;;;;;;;17.38;51.54;98045.41;4965287;28;19921;-73
2022/08/13 02:06:40;;;;;;;;;;;;;;;17.68;50.55;98043.81;4966102;28;19982;-73
2022/08/13 02:09:10;;;;;;;;;;;;;;;17.15;52.11;98051.50;4965209;28;19925;-73
2022/08/13 02:12:24;;;;;;;;;;;;;;;17.03;52.41;98046.03;4975646;28;19977;-73
2022/08/13 02:15:01;;;;;;;;;;;;;;;17.02;52.74;98049.94;4959409;28;20021;-74
2022/08/13 02:17:33;;;;;;;;;;;;;;;17.13;52.19;98044.75;4975010;28;19922;-74
2022/08/13 02:20:21;;;;;;;;;;;;;;;17.11;52.33;98036.88;4961572;28;19926;-73
2022/08/13 02:22:50;;;;;;;;;;;;;;;17.14;52.21;98038.88;4977446;28;19922;-74
2022/08/13 02:25:20;;;;;;;;;;;;;;;17.11;52.13;98036.88;4981722;28;19961;-73
2022/08/13 02:28:39;;;;;;;;;;;;;;;17.19;51.87;98027.66;4979676;28;19929;-74
2022/08/13 02:31:12;;;;;;;;;;;;;;;17.13;52.21;98029.06;4987878;28;22536;-73
2022/08/13 02:33:52;;;;;;;;;;;;;;;17.00;52.32;98024.81;4977182;28;19922;-73
2022/08/13 02:36:23;;;;;;;;;;;;;;;17.05;52.32;98019.06;4993989;28;19922;-74
2022/08/13 02:38:56;;;;;;;;;;;;;;;16.92;52.43;98015.56;4994394;28;19928;-73
2022/08/13 02:41:46;;;;;;;;;;;;;;;16.97;52.47;98025.50;4999314;28;19995;-74
2022/08/13 02:44:20;;;;;;;;;;;;;;;16.81;52.73;98021.91;4974998;28;20391;-73
2022/08/13 02:46:51;;;;;;;;;;;;;;;16.94;52.55;98024.25;4975173;28;19929;-73
2022/08/13 02:49:21;;;;;;;;;;;;;;;17.10;52.13;98024.28;4977838;28;19922;-74
2022/08/13 02:51:49;;;;;;;;;;;;;;;16.76;52.84;98007.28;4997808;28;19967;-74
2022/08/13 02:54:35;;;;;;;;;;;;;;;16.48;53.47;98014.69;4904671;29;19930;-73
2022/08/13 02:57:07;;;;;;;;;;;;;;;16.06;54.91;98015.00;4903433;29;19967;-73
2022/08/13 02:59:35;;;;;;;;;;;;;;;16.01;55.27;98012.47;4903355;29;19923;-73
2022/08/13 03:02:25;;;;;;;;;;;;;;;16.11;54.96;98022.19;4919799;29;20009;-73
2022/08/13 03:04:55;;;;;;;;;;;;;;;16.02;55.27;98016.81;4896110;29;19959;-73
2022/08/13 03:07:26;;;;;;;;;;;;;;;16.28;54.50;98021.91;4899378;29;19951;-74
2022/08/13 03:09:56;;;;;;;;;;;;;;;16.30;54.55;98019.66;4901269;29;19923;-73
2022/08/13 03:12:27;;;;;;;;;;;;;;;16.49;53.93;98014.31;4935133;28;19953;-74
2022/08/13 03:14:58;;;;;;;;;;;;;;;16.56;53.90;98018.41;4975231;28;19976;-73
2022/08/13 03:17:27;;;;;;;;;;;;;;;16.60;53.81;98019.31;4978905;28;19980;-73
2022/08/13 03:19:56;;;;;;;;;;;;;;;16.60;53.83;98020.13;4976338;28;19921;-72
2022/08/13 03:22:25;;;;;;;;;;;;;;;16.54;53.83;98013.28;4993867;28;19928;-73
2022/08/13 03:24:54;;;;;;;;;;;;;;;16.49;54.05;98021.75;4994642;28;19940;-73
2022/08/13 03:30:43;;;;;;;;;;;;;;;16.48;53.92;98015.47;4986426;28;19925;-73
2022/08/13 03:33:14;;;;;;;;;;;;;;;16.48;54.03;98020.16;4992864;28;20279;-73
2022/08/13 03:35:45;;;;;;;;;;;;;;;16.53;53.79;98017.19;4975056;28;20361;-73
2022/08/13 03:38:15;;;;;;;;;;;;;;;16.65;53.88;98014.38;4990236;28;19960;-73
2022/08/13 03:41:02;;;;;;;;;;;;;;;16.53;53.89;98017.19;4988665;28;19922;-73
2022/08/13 03:43:31;;;;;;;;;;;;;;;16.35;54.39;98021.31;4980470;28;19922;-73
2022/08/13 03:45:59;;;;;;;;;;;;;;;16.35;54.73;98022.16;4998867;28;19925;-73
2022/08/13 03:48:28;;;;;;;;;;;;;;;16.37;54.44;98024.53;4978465;28;19932;-73
2022/08/13 03:51:00;;;;;;;;;;;;;;;16.35;54.48;98024.06;4964864;28;19922;-73
2022/08/13 03:53:30;;;;;;;;;;;;;;;16.28;54.71;98021.91;4989009;28;19925;-73
2022/08/13 03:56:11;;;;;;;;;;;;;;;16.18;54.82;98031.41;4965100;28;20012;-73
2022/08/13 03:58:40;;;;;;;;;;;;;;;16.20;54.63;98031.09;4988291;28;19976;-72
2022/08/13 04:01:08;;;;;;;;;;;;;;;16.08;55.00;98029.13;4975398;28;19922;-73
2022/08/13 04:03:41;;;;;;;;;;;;;;;15.86;55.59;98033.16;4975383;28;19922;-73
2022/08/13 04:06:34;;;;;;;;;;;;;;;15.97;55.19;98020.59;4990815;28;20345;-73
2022/08/13 04:09:03;;;;;;;;;;;;;;;16.00;54.99;98026.53;4977193;28;20024;-73
2022/08/13 04:11:31;;;;;;;;;;;;;;;15.98;55.15;98024.16;4996397;28;19921;-73
2022/08/13 04:13:59;;;;;;;;;;;;;;;15.91;55.25;98018.44;4978985;28;19933;-73
2022/08/13 04:16:59;;;;;;;;;;;;;;;15.78;55.90;98016.84;4992351;28;20064;-73
2022/08/13 04:19:33;;;;;;;;;;;;;;;15.71;56.17;98018.22;4978402;28;20016;-73
2022/08/13 04:22:01;;;;;;;;;;;;;;;15.67;56.50;98030.19;4969658;28;20000;-73
2022/08/13 04:24:29;;;;;;;;;;;;;;;15.77;56.13;98032.47;4995501;28;19922;-73
2022/08/13 04:26:59;;;;;;;;;;;;;;;15.70;56.31;98024.81;4992466;28;19928;-73
2022/08/13 04:29:27;;;;;;;;;;;;;;;15.67;56.17;98030.19;4976974;28;19953;-73
2022/08/13 04:31:59;;;;;;;;;;;;;;;15.59;56.49;98034.59;4989497;28;19929;-73
2022/08/13 04:34:29;;;;;;;;;;;;;;;15.51;56.81;98024.56;4970043;28;19926;-73
2022/08/13 04:37:08;;;;;;;;;;;;;;;15.59;56.48;98029.13;4954054;28;19929;-73
2022/08/13 04:39:47;;;;;;;;;;;;;;;15.70;56.27;98024.81;4977679;28;19929;-73
2022/08/13 04:42:45;;;;;;;;;;;;;;;15.85;55.98;98026.06;4986089;28;20116;-73
2022/08/13 04:45:18;;;;;;;;;;;;;;;15.80;55.55;98034.53;4975459;28;20289;-73
2022/08/13 04:47:50;;;;;;;;;;;;;;;15.80;55.65;98026.31;4980135;28;20296;-74
2022/08/13 04:50:19;;;;;;;;;;;;;;;15.84;55.34;98026.44;4982127;28;19977;-73
2022/08/13 04:52:47;;;;;;;;;;;;;;;15.89;55.29;98031.69;4979285;28;19922;-73
2022/08/13 04:55:16;;;;;;;;;;;;;;;15.90;55.25;98030.53;4958007;28;19929;-73
2022/08/13 04:57:44;;;;;;;;;;;;;;;15.88;55.46;98030.09;4977508;28;19973;-73
2022/08/13 05:00:24;;;;;;;;;;;;;;;15.81;55.93;98041.59;4969249;28;20083;-73
2022/08/13 05:02:53;;;;;;;;;;;;;;;15.97;55.13;98028.00;4978644;28;19928;-73
2022/08/13 05:05:24;;;;;;;;;;;;;;;16.05;54.92;98026.31;4974305;28;19993;-73
2022/08/13 05:07:53;;;;;;;;;;;;;;;16.10;54.75;98024.13;4958538;28;20037;-73
2022/08/13 05:10:21;;;;;;;;;;;;;;;16.13;54.83;98026.16;4980133;28;19926;-73
2022/08/13 05:13:01;;;;;;;;;;;;;;;16.12;54.36;98023.78;4976102;28;19922;-74
2022/08/13 05:18:28;;;;;;;;;;;;;;;16.08;55.02;98031.88;4958186;28;20012;-74
2022/08/13 05:21:03;;;;;;;;;;;;;;;16.13;54.77;98028.09;4962923;28;19945;-73
2022/08/13 05:23:32;;;;;;;;;;;;;;;16.13;54.99;98026.16;4976168;28;19937;-74
2022/08/13 05:26:21;;;;;;;;;;;;;;;16.14;55.38;98027.78;4977323;28;19936;-74
2022/08/13 05:29:05;;;;;;;;;;;;;;;16.23;55.33;98031.19;4958099;28;19922;-74
2022/08/13 05:31:35;;;;;;;;;;;;;;;16.33;55.38;98026.38;4973935;28;19921;-74
2022/08/13 05:34:25;;;;;;;;;;;;;;;16.42;54.98;98024.28;4995489;28;19958;-74
2022/08/13 05:36:55;;;;;;;;;;;;;;;16.45;54.65;98031.81;4996028;28;20009;-74
2022/08/13 05:39:43;;;;;;;;;;;;;;;16.50;54.24;98026.09;4996155;28;20415;-74
2022/08/13 05:42:14;;;;;;;;;;;;;;;16.55;54.38;98025.84;5005568;28;19933;-74
2022/08/13 05:44:47;;;;;;;;;;;;;;;16.60;54.18;98031.09;4995577;28;19936;-75
2022/08/13 05:47:19;;;;;;;;;;;;;;;16.65;54.65;98022.63;4979120;28;19921;-75
2022/08/13 05:49:54;;;;;;;;;;;;;;;16.74;54.59;98023.31;4995145;28;20360;-74
2022/08/13 05:52:30;;;;;;;;;;;;;;;16.81;53.78;98027.41;5000467;28;19921;-74
2022/08/13 05:55:07;;;;;;;;;;;;;;;16.94;53.49;98028.94;4995934;28;19925;-73
2022/08/13 05:57:55;;;;;;;;;;;;;;;17.01;53.50;98029.94;4997032;28;19957;-74
2022/08/13 06:03:24;;;;;;;;;;;;;;;17.41;52.08;98023.50;4940982;28;19922;-75
2022/08/13 06:06:14;;;;;;;;;;;;;;;17.40;52.29;98027.41;4973974;28;19945;-74
2022/08/13 06:08:48;;;;;;;;;;;;;;;17.44;52.20;98016.53;4975247;28;19936;-75
2022/08/13 06:11:17;;;;;;;;;;;;;;;17.50;52.50;98021.41;4928233;29;19937;-74
2022/08/13 06:14:05;;;;;;;;;;;;;;;17.98;51.34;98024.16;4937070;29;20018;-74
2022/08/13 06:16:59;;;;;;;;;;;;;;;17.72;52.14;98020.00;4932956;29;19922;-73
2022/08/13 06:19:32;;;;;;;;;;;;;;;17.92;51.89;98014.59;4928954;29;19931;-75
2022/08/13 06:22:04;;;;;;;;;;;;;;;18.07;51.92;98011.03;4937904;29;19937;-73
2022/08/13 06:24:35;;;;;;;;;;;;;;;18.09;51.05;98008.69;4932906;29;19927;-74
2022/08/13 06:27:19;;;;;;;;;;;;;;;18.01;51.56;98012.47;4932625;29;19977;-75
2022/08/13 06:29:53;;;;;;;4.57;2.38;;;;;;;18.35;50.49;98013.59;4948266;28;20552;-74
2022/08/13 06:32:21;;;;;;;;;;;;;;;18.40;50.54;98026.28;4978700;28;20485;-74
2022/08/13 06:35:05;;;;;;;;;;;;;;;18.25;50.63;98014.97;4965157;28;20262;-74
2022/08/13 06:37:36;;;;;;;;;;;;;;;18.47;50.07;98012.66;4980568;28;19921;-77
2022/08/13 06:40:09;;;;;;;;;;;;;;;18.59;50.06;98018.84;4974262;28;19976;-74
2022/08/13 06:42:57;;;;;;;;;;;;;;;18.86;49.15;98020.97;4997222;28;19922;-76
2022/08/13 06:45:26;;;;;;;;;;;;;;;19.05;49.00;98020.94;4987922;28;19922;-76
2022/08/13 06:48:00;;;;;;;;;;;;;;;19.24;48.52;98020.94;4994073;28;19930;-76
2022/08/13 06:50:53;;;;;;;;;;;;;;;19.04;49.19;98019.34;4979209;28;19928;-76
2022/08/13 06:53:21;;;;;;;;;;;;;;;19.38;48.44;98028.63;4973014;28;20349;-75
2022/08/13 06:56:11;;;;;;;;;;;;;;;19.47;48.20;98020.13;4997118;28;19929;-76
2022/08/13 06:59:00;;;;;;;3.50;1.90;;;;;;;19.52;48.48;98022.59;5001529;28;20442;-75
2022/08/13 07:01:37;;;;;;;;;;;;;;;19.53;48.51;98018.66;4978927;28;20046;-76
2022/08/13 07:04:25;;;;;;;;;;;;;;;19.62;48.36;98010.97;4992227;28;20008;-76
2022/08/13 07:06:57;;;;;;;;;;;;;;;19.75;48.13;98014.34;4981574;28;20331;-76
2022/08/13 07:09:24;;;;;;;;;;;;;;;19.92;48.07;98013.00;4994518;28;19925;-74
2022/08/13 07:12:24;;;;;;;;;;;;;;;20.16;47.10;98007.09;4986284;28;19996;-75
2022/08/13 07:14:53;;;;;;;;;;;;;;;20.26;46.48;98013.94;4994908;28;19945;-75
2022/08/13 07:17:27;;;;;;;;;;;;;;;20.37;46.43;98006.59;4989524;28;20291;-76
2022/08/13 07:19:58;;;;;;;;;;;;;;;20.52;45.78;98013.94;4990070;28;19922;-75
2022/08/13 07:22:34;;;;;;;;;;;;;;;20.64;46.05;98012.88;4992470;28;19925;-75
2022/08/13 07:25:22;;;;;;;;;;;;;;;20.76;45.35;98017.38;4996443;28;19922;-76
2022/08/13 07:28:41;;;;;;;;;;;;;;;20.87;45.35;98021.84;4993898;28;19922;-77
2022/08/13 07:31:19;;;;;;;;;;;;;;;21.11;44.70;98026.06;4970560;28;19922;-76
2022/08/13 07:33:51;;;;;;;;;;;;;;;21.12;45.06;98021.34;4969968;28;20020;-76
2022/08/13 07:36:27;;;;;;;;;;;;;;;21.13;45.43;98020.16;4970019;28;20302;-76
2022/08/13 07:38:56;;;;;;;;;;;;;;;21.28;44.29;98026.63;4969565;28;19977;-75
2022/08/13 07:41:27;;;;;;;;;;;;;;;21.41;44.42;98019.69;4980870;28;19965;-75
2022/08/13 07:44:00;;;;;;;;;;;;;;;21.37;44.36;98013.34;4977019;28;19926;-76
2022/08/13 07:46:42;;;;;;;;;;;;;;;21.34;44.31;98014.88;4959311;28;19922;-75
2022/08/13 07:49:18;;;;;;;;;;;;;;;21.54;44.06;98018.25;4950706;28;20497;-75
2022/08/13 07:51:46;;;;;;;;;;;;;;;21.51;43.44;98023.72;4974303;28;19929;-75
2022/08/13 07:54:18;;;;;;;;;;;;;;;21.56;43.47;98017.84;4967911;28;19932;-76
2022/08/13 07:56:55;;;;;;;;;;;;;;;21.69;43.23;98019.16;4979322;28;19929;-76
2022/08/13 07:59:28;;;;;;;;;;;;;;;21.67;43.38;98013.19;4983591;28;19934;-75
2022/08/13 08:02:16;;;;;;;;;;;;;;;21.68;43.81;98023.13;4974131;28;19929;-76
2022/08/13 08:04:49;;;;;;;;;;;;;;;21.75;43.46;98020.41;4959897;28;19950;-76
2022/08/13 08:07:21;;;;;;;;;;;;;;;21.86;43.65;98018.50;4964408;28;19922;-76
2022/08/13 08:09:50;;;;;;;;;;;;;;;22.05;43.27;98011.94;4972215;28;19923;-76
2022/08/13 08:12:37;;;;;;;;;;;;;;;22.20;43.44;98016.41;4978767;28;19922;-76
2022/08/13 08:15:44;;;;;;;;;;;;;;;22.35;42.92;98017.28;4986789;28;19953;-76
2022/08/13 08:18:32;;;;;;;;;;;;;;;22.47;42.85;98019.72;4976176;28;20033;-73
2022/08/13 08:21:23;;;;;;;;;;;;;;;22.55;42.46;98008.69;4971449;28;19922;-75
2022/08/13 08:24:13;;;;;;;;;;;;;;;22.62;41.43;98008.72;4985883;28;20005;-74
2022/08/13 08:26:48;;;;;;;;;;;;;;;22.69;41.51;98019.81;4973445;28;19929;-74
2022/08/13 08:29:20;;;;;;;;;;;;;;;22.88;41.61;98027.84;4955722;28;19929;-75
2022/08/13 08:31:50;;;;;;;;;;;;;;;22.94;41.39;98022.72;4978189;28;19922;-75
2022/08/13 08:34:27;;;;;;;;;;;;;;;23.02;41.28;98018.81;4962444;28;20026;-75
2022/08/13 08:36:56;;;;;;;;;;;;;;;23.11;41.27;98023.97;4984268;28;19921;-76
2022/08/13 08:44:59;;;;;;;;;;;;;;;23.43;40.46;98016.50;4962256;28;20013;-74
2022/08/13 08:47:30;;;;;;;;;;;;;;;23.51;40.38;98020.09;4885192;29;20321;-75
2022/08/13 08:50:16;;;;;;;;;;;;;;;23.63;38.69;98016.16;4897740;29;20043;-75
2022/08/13 08:53:22;;;;;;;;;;;;;;;23.81;39.59;98021.72;4899916;29;20067;-84
2022/08/13 08:56:10;;;;;;;;;;;;;;;23.90;38.56;98009.03;4901189;29;19966;-74
2022/08/13 08:58:40;;;;;;;;;;;;;;;23.92;38.76;98012.22;4905014;29;19942;-75
2022/08/13 09:01:10;;;;;;;;;;;;;;;23.87;36.97;98015.38;4882749;29;19927;-76
2022/08/13 09:03:42;;;;;;;;;;;;;;;23.99;38.09;98014.97;4901266;29;19927;-75
2022/08/13 09:06:35;;;;;;;;;;;;;;;24.14;36.31;98012.19;4948462;28;20384;-76
2022/08/13 09:09:23;;;;;;;;;;;;;;;24.18;37.34;98007.41;4958294;28;20378;-72
2022/08/13 09:11:55;;;;;;;;;;;;;;;24.23;36.08;98009.78;4959693;28;19972;-76
2022/08/13 09:14:25;;;;;;;;;;;;;;;24.35;36.00;98009.41;4959228;28;20244;-76
2022/08/13 09:16:56;;;;;;;;;;;;;;;24.40;35.38;98003.44;4959676;28;20029;-75
2022/08/13 09:19:25;;;;;;;;;;;;;;;24.40;35.21;97997.09;4980439;28;20388;-75
2022/08/13 09:22:14;;;;;;;;;;;;;;;24.47;34.94;98005.41;4975622;28;19926;-74
2022/08/13 09:24:46;;;;;;;;;;;;;;;24.53;34.98;97995.47;4958627;28;19929;-74
2022/08/13 09:27:17;;;;;;;;;;;;;;;24.54;35.45;98000.59;4967712;28;19930;-74
2022/08/13 09:29:48;;;;;;;;;;;;;;;24.68;34.96;97999.78;4957325;28;20027;-74
2022/08/13 09:32:25;;;;;;;;;;;;;;;24.77;35.13;98000.16;4990673;28;19921;-79
2022/08/13 09:35:00;;;;;;;;;;;;;;;24.82;36.60;97990.56;4976833;28;19948;-75
2022/08/13 09:37:30;;;;;;;;;;;;;;;24.93;34.01;97994.13;4995439;28;20284;-75
2022/08/13 09:40:19;;;;;;;;;;;;;;;25.00;34.27;97996.06;4972879;28;19922;-75
2022/08/13 09:43:07;;;;;;;;;;;;;;;24.91;32.46;97993.72;4988540;28;19981;-76
2022/08/13 09:45:38;;;;;;;;;;;;;;;24.84;33.53;97999.31;4995274;28;19944;-76
2022/08/13 09:48:08;;;;;;;;;;;;;;;24.80;33.57;97992.97;4995682;28;19973;-77
2022/08/13 09:50:56;;;;;;;;;;;;;;;24.93;33.39;97988.56;5000905;28;19921;-76
2022/08/13 09:53:26;;;;;;;;;;;;;;;24.95;32.36;97985.38;5001146;28;19926;-76
2022/08/13 09:55:58;;;;;;;;;;;;;;;24.95;33.29;97980.59;5000226;28;20427;-76
2022/08/13 09:58:26;;;;;;;;;;;;;;;24.84;33.47;97971.53;4989526;28;19929;-76
2022/08/13 10:01:09;;;;;;;;;;;;;;;24.84;33.27;97977.09;4997591;28;19921;-76
2022/08/13 10:03:42;;;;;;;;;;;;;;;25.00;32.26;97969.06;4996312;28;19949;-76
2022/08/13 10:06:10;;;;;;;;;;;;;;;25.19;31.98;97976.09;4980143;28;20500;-77
2022/08/13 10:08:39;;;;;;;;;;;;;;;25.42;31.97;97970.00;4977667;28;19988;-76
2022/08/13 10:11:10;;;;;;;;;;;;;;;25.62;32.37;97964.69;4979537;28;20378;-76
2022/08/13 10:13:40;;;;;;;;;;;;;;;25.72;31.47;97969.34;4995897;28;19945;-76
2022/08/13 10:16:17;;;;;;;;;;;;;;;25.50;31.50;97965.97;4979748;28;19925;-76
2022/08/13 10:18:46;;;;;;;;;;;;;;;25.47;32.14;97968.78;4995411;28;19926;-77
2022/08/13 10:21:39;;;;;;;;;;;;;;;25.36;32.61;97966.09;4991654;28;19941;-77
2022/08/13 10:24:11;;;;;;;;;;;;;;;25.08;32.76;97967.84;4975537;28;19926;-76
2022/08/13 10:26:40;;;;;;;;;;;;;;;25.11;32.75;97968.22;4911113;29;19927;-76
2022/08/13 10:29:09;;;;;;;;;;;;;;;25.23;32.73;97959.41;4904957;29;19941;-76
2022/08/13 10:31:59;;;;;;;;;;;;;;;25.18;32.77;97962.63;4874406;29;19927;-76
2022/08/13 10:34:27;;;;;;;;;;;;;;;25.41;32.16;97959.28;4886778;29;19942;-76
2022/08/13 10:37:08;;;;;;;;;;;;;;;25.22;32.49;97966.16;4894534;29;19935;-75
2022/08/13 10:39:39;;;;;;;;;;;;;;;25.16;32.60;97963.03;4896024;29;19994;-76
2022/08/13 10:42:11;;;;;;;;;;;;;;;25.17;32.16;97950.72;4893644;29;19935;-76
2022/08/13 10:44:40;;;;;;;;;;;;;;;25.21;32.92;97945.13;4920026;28;19932;-76
2022/08/13 10:47:09;;;;;;;;;;;;;;;25.26;33.49;97945.50;4994343;28;19933;-76
2022/08/13 10:49:37;;;;;;;;;;;;;;;25.29;32.01;97946.66;4976216;28;19933;-76
2022/08/13 10:52:05;;;;;;;;;;;;;;;25.56;31.99;97955.19;4975683;28;20021;-76
2022/08/13 10:54:36;;;;;;;;;;;;;;;25.57;30.24;97946.44;4972971;28;19930;-76
2022/08/13 10:57:06;;;;;;;;;;;;;;;25.64;30.31;97942.03;4997646;28;20033;-76
2022/08/13 10:59:36;;;;;;;;;;;;;;;25.67;31.80;97949.53;4983638;28;19949;-77
2022/08/13 11:02:06;;;;;;;;;;;;;;;25.75;29.21;97942.75;4992980;28;19930;-76
2022/08/13 11:04:36;;;;;;;;;;;;;;;25.72;30.31;97937.97;4983138;28;20352;-76
2022/08/13 11:07:04;;;;;;;;;;;;;;;25.81;29.64;97943.88;4991941;28;19925;-76
2022/08/13 11:09:32;;;;;;;3.30;1.60;;;;;;;25.85;28.13;97930.72;5000259;28;19928;-76
2022/08/13 11:12:31;;;;;;;81.50;37.17;;;;;;;26.20;28.22;97925.97;4993354;28;20441;-76
2022/08/13 11:15:00;;;;;;;2.60;1.30;;;;;;;26.31;27.53;97921.88;4994177;28;20913;-76
2022/08/13 11:17:33;;;;;;;2.60;1.30;;;;;;;26.51;28.67;97919.25;4987423;28;20430;-76
2022/08/13 11:20:24;;;;;;;;;;;;;;;26.56;27.25;97918.00;4996665;28;20428;-75
2022/08/13 11:22:53;;;;;;;;;;;;;;;26.59;28.61;97917.97;4980101;28;19949;-76
2022/08/13 11:25:21;;;;;;;;;;;;;;;26.56;28.90;97915.22;4974359;28;19921;-76
2022/08/13 11:28:34;;;;;;;;;;;;;;;26.64;28.52;97916.72;4990081;28;19930;-76
2022/08/13 11:31:04;;;;;;;;;;;;;;;26.83;29.01;97918.03;4990103;28;20352;-75
2022/08/13 11:33:32;;;;;;;;;;;;;;;26.86;28.62;97917.22;4994294;28;19925;-76
2022/08/13 11:36:10;;;;;;;;;;;;;;;26.77;29.16;97919.72;4964995;28;20292;-74
2022/08/13 11:38:42;;;;;;;;;;;;;;;26.58;28.75;97910.84;4993066;28;20309;-75
2022/08/13 11:41:12;;;;;;;;;;;;;;;26.37;28.98;97908.28;4983773;28;19930;-75
2022/08/13 11:43:42;;;;;;;;;;;;;;;26.05;28.61;97909.44;4992265;28;20009;-74
2022/08/13 11:46:21;;;;;;;;;;;;;;;26.22;28.99;97902.09;4979311;28;19921;-73
2022/08/13 11:48:49;;;;;;;;;;;;;;;26.06;28.19;97893.53;4974832;28;19929;-74
2022/08/13 11:51:36;;;;;;;;;;;;;;;26.27;28.35;97892.50;4997888;28;19925;-73
2022/08/13 11:54:19;;;;;;;;;;;;;;;26.47;27.99;97892.66;4989396;28;19951;-73
2022/08/13 11:57:23;;;;;;;;;;;;;;;26.37;27.74;97895.16;4992107;28;19921;-72
2022/08/13 11:59:51;;;;;;;;;;;;;;;26.32;27.78;97894.81;4983166;28;19930;-72
2022/08/13 12:02:23;;;;;;;;;;;;;;;26.33;27.47;97890.81;4979401;28;19968;-74
2022/08/13 12:04:53;;;;;;;;;;;;;;;26.55;27.29;97896.94;4974767;28;19939;-73
2022/08/13 12:07:28;;;;;;;;;;;;;;;26.48;27.25;97889.47;4990066;28;20025;-73
2022/08/13 12:09:56;;;;;;;;;;;;;;;26.61;27.19;97890.47;4976747;28;19926;-74
2022/08/13 12:12:25;;;;;;;;;;;;;;;26.56;27.34;97885.38;4993491;28;19921;-74
2022/08/13 12:14:58;;;;;;;;;;;;;;;26.27;28.33;97881.34;4998612;28;19929;-75
2022/08/13 12:17:28;;;;;;;;;;;;;;;26.31;27.78;97876.50;4978565;28;20008;-74
2022/08/13 12:20:16;;;;;;;;;;;;;;;26.51;27.65;97874.69;4996584;28;19965;-73
2022/08/13 12:22:48;;;;;;;;;;;;;;;26.48;28.84;97881.09;4985630;28;20272;-73
2022/08/13 12:25:43;;;;;;;;;;;;;;;26.60;27.49;97872.19;4990640;28;19921;-75
2022/08/13 12:28:34;;;;;;;;;;;;;;;26.56;27.96;97868.66;4994092;28;19930;-78
2022/08/13 12:31:04;;;;;;;;;;;;;;;26.57;27.38;97866.66;4972075;28;19921;-73
2022/08/13 12:33:35;;;;;;;;;;;;;;;26.71;27.16;97874.03;4992923;28;19921;-73
2022/08/13 12:36:07;;;;;;;;;;;;;;;26.80;27.53;97863.16;4997375;28;19925;-74
2022/08/13 12:38:36;;;;;;;;;;;;;;;26.85;27.12;97859.91;4970747;28;19921;-74
2022/08/13 12:41:06;;;;;;;;;;;;;;;26.95;25.97;97858.13;4989066;28;20183;-74
2022/08/13 12:43:45;;;;;;;;;;;;;;;27.05;27.29;97846.03;4998231;28;20019;-74
2022/08/13 12:46:36;;;;;;;;;;;;;;;27.04;27.79;97850.03;4995834;28;20276;-74
2022/08/13 12:49:05;;;;;;;;;;;;;;;27.11;28.15;97838.78;4995807;28;19928;-74
2022/08/13 12:51:38;;;;;;;;;;;;;;;27.01;27.60;97846.09;4976472;28;19922;-74
2022/08/13 12:54:07;;;;;;;;;;;;;;;27.01;27.23;97832.16;4996905;28;20022;-74
2022/08/13 12:56:42;;;;;;;;;;;;;;;26.98;27.53;97833.00;4991869;28;20021;-74
2022/08/13 12:59:11;;;;;;;;;;;;;;;27.02;28.66;97830.16;4997357;28;19960;-74
2022/08/13 13:02:04;;;;;;;;;;;;;;;27.26;26.78;97828.19;4997482;28;19929;-74
2022/08/13 13:04:35;;;;;;;;;;;;;;;27.33;25.73;97823.28;5011089;28;19921;-74
2022/08/13 13:07:03;;;;;;;;;;;;;;;27.32;27.77;97830.06;5001121;28;20004;-74
2022/08/13 13:10:00;;;;;;;;;;;;;;;27.39;27.70;97835.53;4995326;28;19929;-74
2022/08/13 13:12:29;;;;;;;;;;;;;;;27.46;27.50;97833.84;4992454;28;19921;-74
2022/08/13 13:14:57;;;;;;;;;;;;;;;27.30;25.69;97842.88;4978670;28;19925;-74
2022/08/13 13:17:48;;;;;;;;;;;;;;;27.38;27.64;97838.75;4978741;28;19929;-74
2022/08/13 13:20:41;;;;;;;;;;;;;;;27.27;26.04;97829.75;4975385;28;19929;-74
2022/08/13 13:23:10;;;;;;;;;;;;;;;27.13;26.07;97826.00;4978312;28;19922;-74
2022/08/13 13:25:43;;;;;;;3.35;1.70;;;;;;;27.00;26.08;97825.00;4977942;28;19921;-74
2022/08/13 13:28:40;;;;;;;;;;;;;;;26.92;26.39;97829.13;4988721;28;20061;-74
2022/08/13 13:31:08;;;;;;;;;;;;;;;26.85;26.31;97827.25;4990852;28;20030;-75
2022/08/13 13:33:43;;;;;;;;;;;;;;;26.96;26.46;97821.50;4987939;28;19922;-74
2022/08/13 13:36:16;;;;;;;;;;;;;;;26.94;26.32;97823.13;4977990;28;20256;-74
2022/08/13 13:38:46;;;;;;;;;;;;;;;26.81;26.74;97820.13;4980546;28;19929;-74
2022/08/13 13:41:22;;;;;;;;;;;;;;;26.84;26.61;97817.28;4978238;28;19928;-74
2022/08/13 13:43:56;;;;;;;;;;;;;;;27.01;26.52;97818.22;4978012;28;20410;-74
2022/08/13 13:46:24;;;;;;;;;;;;;;;27.04;25.93;97811.78;4991796;28;19921;-74
2022/08/13 13:48:52;;;;;;;;;;;;;;;27.14;27.02;97812.84;4918985;29;19922;-74
2022/08/13 13:51:21;;;;;;;;;;;;;;;27.19;28.04;97803.22;4919857;29;19930;-74
2022/08/13 13:53:51;;;;;;;;;;;;;;;27.26;26.56;97800.31;4918348;29;20251;-74